createdAt,value
2019-02-05T00:00:05.065Z,3.80
2019-02-05T00:01:04.970Z,3.77
2019-02-05T00:02:04.886Z,3.77
2019-02-05T00:03:04.819Z,3.77
2019-02-05T00:04:04.710Z,3.72
2019-02-05T00:05:04.622Z,3.72
2019-02-05T00:06:04.540Z,3.72
2019-02-05T00:07:04.449Z,3.78
2019-02-05T00:08:04.375Z,3.77
2019-02-05T00:09:04.278Z,3.77
2019-02-05T00:10:04.187Z,3.80
2019-02-05T00:11:04.107Z,3.78
2019-02-05T00:12:04.011Z,3.78
2019-02-05T00:13:03.945Z,3.75
2019-02-05T00:14:03.839Z,3.74
2019-02-05T00:15:03.767Z,3.82
2019-02-05T00:16:03.663Z,3.77
2019-02-05T00:17:03.581Z,3.78
2019-02-05T00:18:03.502Z,3.81
2019-02-05T00:19:03.402Z,3.80
2019-02-05T00:20:03.323Z,3.78
2019-02-05T00:21:03.232Z,3.84
2019-02-05T00:22:03.141Z,3.75
2019-02-05T00:23:03.073Z,3.80
2019-02-05T00:24:02.966Z,3.81
2019-02-05T00:25:02.879Z,3.77
2019-02-05T00:26:06.193Z,3.93
2019-02-05T00:27:02.705Z,3.80
2019-02-05T00:28:02.630Z,3.82
2019-02-05T00:29:02.539Z,3.84
2019-02-05T00:30:02.444Z,3.80
2019-02-05T00:31:02.356Z,3.88
2019-02-05T00:32:02.285Z,3.93
2019-02-05T00:33:02.197Z,3.80
2019-02-05T00:34:02.099Z,3.82
2019-02-05T00:35:02.016Z,3.89
2019-02-05T00:36:01.925Z,3.89
2019-02-05T00:37:01.832Z,3.84
2019-02-05T00:38:01.768Z,3.89
2019-02-05T00:39:01.660Z,3.86
2019-02-05T00:40:01.575Z,3.80
2019-02-05T00:41:01.496Z,3.86
2019-02-05T00:42:01.398Z,3.84
2019-02-05T00:43:01.390Z,3.88
2019-02-05T00:44:01.232Z,3.88
2019-02-05T00:45:01.178Z,3.95
2019-02-05T00:46:01.052Z,3.86
2019-02-05T00:47:00.971Z,3.84
2019-02-05T00:48:01.179Z,3.93
2019-02-05T00:49:00.789Z,3.96
2019-02-05T00:50:00.731Z,3.92
2019-02-05T00:51:00.615Z,3.92
2019-02-05T00:52:00.526Z,3.89
2019-02-05T00:53:00.449Z,3.92
2019-02-05T00:54:00.364Z,3.86
2019-02-05T00:55:00.328Z,3.84
2019-02-05T00:56:00.181Z,3.86
2019-02-05T00:57:00.097Z,3.88
2019-02-05T00:58:00.006Z,3.84
2019-02-05T00:58:59.939Z,3.89
2019-02-05T00:59:59.831Z,3.88
2019-02-05T01:00:59.755Z,3.82
2019-02-05T01:01:59.658Z,3.88
2019-02-05T01:02:59.578Z,3.86
2019-02-05T01:03:59.497Z,3.78
2019-02-05T01:04:59.402Z,3.84
2019-02-05T01:05:59.311Z,3.84
2019-02-05T01:06:59.225Z,3.82
2019-02-05T01:07:59.133Z,3.81
2019-02-05T01:08:59.066Z,3.80
2019-02-05T01:09:58.962Z,3.82
2019-02-05T01:10:58.881Z,3.77
2019-02-05T01:11:58.788Z,3.82
2019-02-05T01:12:58.705Z,3.81
2019-02-05T01:13:58.625Z,3.77
2019-02-05T01:14:58.536Z,3.68
2019-02-05T01:15:58.443Z,3.75
2019-02-05T01:16:58.357Z,3.77
2019-02-05T01:17:58.264Z,3.81
2019-02-05T01:18:58.192Z,3.75
2019-02-05T01:19:58.099Z,3.74
2019-02-05T01:20:58.070Z,3.75
2019-02-05T01:21:57.917Z,3.78
2019-02-05T01:22:57.833Z,3.81
2019-02-05T01:23:57.755Z,3.80
2019-02-05T01:24:57.655Z,3.70
2019-02-05T01:25:57.573Z,3.70
2019-02-05T01:26:57.479Z,3.67
2019-02-05T01:27:57.398Z,3.74
2019-02-05T01:28:57.320Z,3.72
2019-02-05T01:29:57.224Z,3.67
2019-02-05T01:30:57.138Z,3.67
2019-02-05T01:31:57.050Z,3.77
2019-02-05T01:32:56.961Z,3.68
2019-02-05T01:33:56.892Z,3.68
2019-02-05T01:34:56.784Z,3.68
2019-02-05T01:35:56.701Z,3.78
2019-02-05T01:36:56.608Z,3.72
2019-02-05T01:37:56.532Z,3.71
2019-02-05T01:38:56.449Z,3.72
2019-02-05T01:39:56.355Z,3.68
2019-02-05T01:40:56.263Z,3.68
2019-02-05T01:41:56.179Z,3.72
2019-02-05T01:42:56.089Z,3.71
2019-02-05T01:43:56.017Z,3.72
2019-02-05T01:44:55.912Z,3.67
2019-02-05T01:45:55.825Z,3.64
2019-02-05T01:46:55.753Z,3.68
2019-02-05T01:47:55.652Z,3.67
2019-02-05T01:48:55.579Z,3.68
2019-02-05T01:49:55.484Z,3.63
2019-02-05T01:50:55.389Z,3.74
2019-02-05T01:51:55.305Z,3.64
2019-02-05T01:52:55.225Z,3.72
2019-02-05T01:53:55.147Z,3.74
2019-02-05T01:54:55.047Z,3.62
2019-02-05T01:55:54.963Z,3.72
2019-02-05T01:56:54.866Z,3.71
2019-02-05T01:57:54.786Z,3.71
2019-02-05T01:58:54.707Z,3.77
2019-02-05T01:59:54.608Z,3.67
2019-02-05T02:00:54.523Z,3.60
2019-02-05T02:01:54.432Z,3.68
2019-02-05T02:02:54.347Z,3.74
2019-02-05T02:03:54.276Z,3.64
2019-02-05T02:04:54.170Z,3.75
2019-02-05T02:05:54.091Z,3.71
2019-02-05T02:06:53.996Z,3.63
2019-02-05T02:07:53.914Z,3.67
2019-02-05T02:08:53.834Z,3.70
2019-02-05T02:09:53.741Z,3.68
2019-02-05T02:10:53.648Z,3.77
2019-02-05T02:11:53.568Z,3.72
2019-02-05T02:12:53.474Z,3.74
2019-02-05T02:13:53.422Z,3.70
2019-02-05T02:14:53.302Z,3.70
2019-02-05T02:15:53.219Z,3.74
2019-02-05T02:16:53.150Z,3.64
2019-02-05T02:17:53.047Z,3.71
2019-02-05T02:18:52.951Z,3.78
2019-02-05T02:19:52.885Z,3.74
2019-02-05T02:20:52.780Z,3.72
2019-02-05T02:21:52.697Z,3.62
2019-02-05T02:22:52.604Z,3.67
2019-02-05T02:23:52.523Z,3.63
2019-02-05T02:24:52.443Z,3.72
2019-02-05T02:25:52.342Z,3.74
2019-02-05T02:26:52.513Z,3.75
2019-02-05T02:27:52.167Z,3.75
2019-02-05T02:28:52.080Z,3.74
2019-02-05T02:29:52.014Z,3.71
2019-02-05T02:30:51.907Z,3.70
2019-02-05T02:31:51.821Z,3.71
2019-02-05T02:32:51.739Z,3.70
2019-02-05T02:33:51.646Z,3.71
2019-02-05T02:34:51.574Z,3.64
2019-02-05T02:35:51.475Z,3.75
2019-02-05T02:36:51.383Z,3.75
2019-02-05T02:37:51.303Z,3.78
2019-02-05T02:38:51.208Z,3.77
2019-02-05T02:39:51.141Z,3.75
2019-02-05T02:40:51.038Z,3.67
2019-02-05T02:41:50.956Z,3.75
2019-02-05T02:42:50.861Z,3.72
2019-02-05T02:43:50.783Z,3.70
2019-02-05T02:44:50.700Z,3.74
2019-02-05T02:45:50.600Z,3.68
2019-02-05T02:46:50.521Z,3.63
2019-02-05T02:47:50.426Z,3.71
2019-02-05T02:48:50.347Z,3.75
2019-02-05T02:49:50.270Z,3.67
2019-02-05T02:50:50.166Z,3.74
2019-02-05T02:51:50.084Z,3.74
2019-02-05T02:52:49.998Z,3.71
2019-02-05T02:53:49.910Z,3.67
2019-02-05T02:54:49.833Z,3.68
2019-02-05T02:55:49.739Z,3.64
2019-02-05T02:56:49.646Z,3.62
2019-02-05T02:57:49.565Z,3.70
2019-02-05T02:58:49.471Z,3.68
2019-02-05T02:59:49.405Z,3.68
2019-02-05T03:00:49.292Z,3.68
2019-02-05T03:01:49.214Z,3.70
2019-02-05T03:02:49.123Z,3.70
2019-02-05T03:03:49.041Z,3.71
2019-02-05T03:04:48.959Z,3.64
2019-02-05T03:05:48.859Z,3.68
2019-02-05T03:06:48.778Z,3.72
2019-02-05T03:07:48.687Z,3.71
2019-02-05T03:08:48.601Z,3.56
2019-02-05T03:09:48.542Z,3.56
2019-02-05T03:10:48.425Z,3.54
2019-02-05T03:11:48.343Z,3.62
2019-02-05T03:12:48.254Z,3.59
2019-02-05T03:13:48.164Z,3.46
2019-02-05T03:14:48.087Z,3.54
2019-02-05T03:15:47.992Z,3.56
2019-02-05T03:16:47.897Z,3.52
2019-02-05T03:17:47.827Z,3.54
2019-02-05T03:18:47.726Z,3.56
2019-02-05T03:19:47.658Z,3.50
2019-02-05T03:20:47.551Z,3.49
2019-02-05T03:21:47.468Z,3.41
2019-02-05T03:22:47.376Z,3.52
2019-02-05T03:23:47.296Z,3.41
2019-02-05T03:24:47.213Z,3.39
2019-02-05T03:25:47.116Z,3.37
2019-02-05T03:26:47.044Z,3.45
2019-02-05T03:27:46.939Z,3.54
2019-02-05T03:28:46.854Z,3.39
2019-02-05T03:29:46.787Z,3.44
2019-02-05T03:30:46.683Z,3.44
2019-02-05T03:31:46.592Z,3.45
2019-02-05T03:32:46.520Z,3.52
2019-02-05T03:33:46.416Z,3.39
2019-02-05T03:34:46.351Z,3.42
2019-02-05T03:35:46.242Z,3.37
2019-02-05T03:36:46.166Z,3.34
2019-02-05T03:37:46.068Z,3.28
2019-02-05T03:38:45.988Z,3.37
2019-02-05T03:39:45.903Z,3.30
2019-02-05T03:40:45.811Z,3.37
2019-02-05T03:41:45.723Z,3.33
2019-02-05T03:42:45.638Z,3.33
2019-02-05T03:43:45.547Z,3.39
2019-02-05T03:44:45.492Z,3.33
2019-02-05T03:45:45.378Z,3.26
2019-02-05T03:46:45.282Z,3.37
2019-02-05T03:47:45.199Z,3.41
2019-02-05T03:48:45.106Z,3.22
2019-02-05T03:49:45.021Z,3.37
2019-02-05T03:50:44.954Z,3.26
2019-02-05T03:51:44.843Z,3.37
2019-02-05T03:52:44.765Z,3.31
2019-02-05T03:53:44.669Z,3.30
2019-02-05T03:54:44.587Z,3.31
2019-02-05T03:55:44.505Z,3.35
2019-02-05T03:56:44.406Z,3.33
2019-02-05T03:57:44.335Z,3.34
2019-02-05T03:58:44.233Z,3.31
2019-02-05T03:59:44.144Z,3.30
2019-02-05T04:00:44.085Z,3.31
2019-02-05T04:01:43.971Z,3.28
2019-02-05T04:02:43.891Z,3.34
2019-02-05T04:03:43.797Z,3.35
2019-02-05T04:04:43.715Z,3.39
2019-02-05T04:05:43.636Z,3.35
2019-02-05T04:06:43.538Z,3.31
2019-02-05T04:07:43.455Z,3.37
2019-02-05T04:08:43.358Z,3.41
2019-02-05T04:09:43.269Z,3.30
2019-02-05T04:10:43.209Z,3.44
2019-02-05T04:11:43.096Z,3.39
2019-02-05T04:12:43.011Z,3.33
2019-02-05T04:13:42.929Z,3.39
2019-02-05T04:14:42.834Z,3.39
2019-02-05T04:15:42.758Z,3.39
2019-02-05T04:16:42.663Z,3.42
2019-02-05T04:17:42.576Z,3.33
2019-02-05T04:18:42.489Z,3.35
2019-02-05T04:19:42.409Z,3.33
2019-02-05T04:20:42.323Z,3.28
2019-02-05T04:21:42.223Z,3.39
2019-02-05T04:22:42.140Z,3.44
2019-02-05T04:23:42.046Z,3.41
2019-02-05T04:24:41.966Z,3.33
2019-02-05T04:25:41.887Z,3.42
2019-02-05T04:26:41.793Z,3.42
2019-02-05T04:27:45.014Z,3.35
2019-02-05T04:28:41.615Z,3.33
2019-02-05T04:29:41.527Z,3.45
2019-02-05T04:30:41.455Z,3.42
2019-02-05T04:31:41.349Z,3.42
2019-02-05T04:32:41.263Z,3.49
2019-02-05T04:33:41.179Z,3.39
2019-02-05T04:34:41.086Z,3.39
2019-02-05T04:35:41.011Z,3.37
2019-02-05T04:36:40.918Z,3.34
2019-02-05T04:37:40.826Z,3.42
2019-02-05T04:38:40.746Z,3.44
2019-02-05T04:39:40.649Z,3.45
2019-02-05T04:40:40.580Z,3.39
2019-02-05T04:41:40.477Z,3.44
2019-02-05T04:42:40.393Z,3.41
2019-02-05T04:43:40.302Z,3.41
2019-02-05T04:44:40.220Z,3.39
2019-02-05T04:45:40.143Z,3.42
2019-02-05T04:46:40.040Z,3.46
2019-02-05T04:47:39.954Z,3.50
2019-02-05T04:48:43.457Z,3.41
2019-02-05T04:49:39.777Z,3.39
2019-02-05T04:50:39.710Z,3.44
2019-02-05T04:51:39.600Z,3.41
2019-02-05T04:52:39.513Z,3.39
2019-02-05T04:53:39.433Z,3.41
2019-02-05T04:54:39.343Z,3.49
2019-02-05T04:55:39.275Z,3.44
2019-02-05T04:56:39.164Z,3.41
2019-02-05T04:57:39.078Z,3.44
2019-02-05T04:58:38.999Z,3.41
2019-02-05T04:59:38.903Z,3.44
2019-02-05T05:00:38.874Z,3.44
2019-02-05T05:01:38.735Z,3.39
2019-02-05T05:02:38.643Z,3.35
2019-02-05T05:03:38.581Z,3.45
2019-02-05T05:04:38.467Z,3.46
2019-02-05T05:05:38.393Z,3.39
2019-02-05T05:06:38.292Z,3.39
2019-02-05T05:07:38.208Z,3.41
2019-02-05T05:08:38.117Z,3.42
2019-02-05T05:09:38.037Z,3.45
2019-02-05T05:10:37.971Z,3.39
2019-02-05T05:11:40.918Z,3.41
2019-02-05T05:12:37.768Z,3.45
2019-02-05T05:13:37.791Z,3.46
2019-02-05T05:14:37.598Z,3.37
2019-02-05T05:15:37.513Z,3.53
2019-02-05T05:16:37.435Z,3.39
2019-02-05T05:17:37.345Z,3.49
2019-02-05T05:18:37.246Z,3.45
2019-02-05T05:19:37.166Z,3.44
2019-02-05T05:20:37.071Z,3.52
2019-02-05T05:21:37.003Z,3.52
2019-02-05T05:22:36.898Z,3.52
2019-02-05T05:23:36.815Z,3.53
2019-02-05T05:24:36.722Z,3.50
2019-02-05T05:25:36.754Z,3.54
2019-02-05T05:26:36.570Z,3.54
2019-02-05T05:27:37.482Z,3.54
2019-02-05T05:28:36.374Z,3.53
2019-02-05T05:29:36.366Z,3.54
2019-02-05T05:30:36.201Z,3.50
2019-02-05T05:31:36.131Z,3.49
2019-02-05T05:32:36.025Z,3.54
2019-02-05T05:33:35.939Z,3.50
2019-02-05T05:34:35.857Z,3.56
2019-02-05T05:35:41.812Z,3.52
2019-02-05T05:36:35.691Z,3.50
2019-02-05T05:37:35.598Z,3.56
2019-02-05T05:38:35.504Z,3.56
2019-02-05T05:39:35.513Z,3.56
2019-02-05T05:40:35.328Z,3.54
2019-02-05T05:41:35.353Z,3.57
2019-02-05T05:42:35.155Z,3.56
2019-02-05T05:43:35.132Z,3.53
2019-02-05T05:44:34.981Z,3.60
2019-02-05T05:45:34.949Z,3.59
2019-02-05T05:46:34.822Z,3.59
2019-02-05T05:47:34.720Z,3.56
2019-02-05T05:48:34.807Z,3.56
2019-02-05T05:49:34.547Z,3.56
2019-02-05T05:50:34.458Z,3.59
2019-02-05T05:51:34.397Z,3.56
2019-02-05T05:52:34.282Z,3.57
2019-02-05T05:53:34.196Z,3.52
2019-02-05T05:54:34.119Z,3.53
2019-02-05T05:55:34.025Z,3.59
2019-02-05T05:56:33.955Z,3.57
2019-02-05T05:57:33.849Z,3.60
2019-02-05T05:58:33.760Z,3.53
2019-02-05T05:59:33.684Z,3.54
2019-02-05T06:00:33.592Z,3.54
2019-02-05T06:01:33.513Z,3.57
2019-02-05T06:02:33.419Z,3.60
2019-02-05T06:03:33.327Z,3.57
2019-02-05T06:04:33.245Z,3.60
2019-02-05T06:05:33.154Z,3.62
2019-02-05T06:06:33.088Z,3.60
2019-02-05T06:07:32.978Z,3.57
2019-02-05T06:08:32.898Z,3.62
2019-02-05T06:09:32.805Z,3.54
2019-02-05T06:10:32.723Z,3.54
2019-02-05T06:11:32.644Z,3.53
2019-02-05T06:12:32.556Z,3.56
2019-02-05T06:13:32.458Z,3.54
2019-02-05T06:14:32.377Z,3.56
2019-02-05T06:15:32.284Z,3.53
2019-02-05T06:16:32.218Z,3.53
2019-02-05T06:17:32.114Z,3.52
2019-02-05T06:18:32.025Z,3.52
2019-02-05T06:19:31.941Z,3.53
2019-02-05T06:20:31.852Z,3.52
2019-02-05T06:21:31.776Z,3.53
2019-02-05T06:22:31.680Z,3.56
2019-02-05T06:23:31.585Z,3.56
2019-02-05T06:24:31.499Z,3.54
2019-02-05T06:25:31.421Z,3.53
2019-02-05T06:26:31.337Z,3.50
2019-02-05T06:27:31.237Z,3.52
2019-02-05T06:28:34.674Z,3.59
2019-02-05T06:29:31.064Z,3.42
2019-02-05T06:30:30.977Z,3.53
2019-02-05T06:31:30.909Z,3.52
2019-02-05T06:32:30.809Z,3.54
2019-02-05T06:33:30.721Z,3.50
2019-02-05T06:34:30.641Z,3.59
2019-02-05T06:35:30.541Z,3.50
2019-02-05T06:36:30.482Z,3.49
2019-02-05T06:37:30.374Z,3.56
2019-02-05T06:38:30.282Z,3.57
2019-02-05T06:39:30.201Z,3.59
2019-02-05T06:40:30.108Z,3.56
2019-02-05T06:41:30.026Z,3.53
2019-02-05T06:42:29.946Z,3.50
2019-02-05T06:43:29.853Z,3.53
2019-02-05T06:44:29.758Z,3.59
2019-02-05T06:45:29.677Z,3.56
2019-02-05T06:46:29.585Z,3.54
2019-02-05T06:47:29.517Z,3.60
2019-02-05T06:48:29.412Z,3.56
2019-02-05T06:49:29.322Z,3.53
2019-02-05T06:50:29.241Z,3.60
2019-02-05T06:51:29.149Z,3.57
2019-02-05T06:52:29.074Z,3.60
2019-02-05T06:53:28.980Z,3.56
2019-02-05T06:54:28.891Z,3.54
2019-02-05T06:55:28.802Z,3.60
2019-02-05T06:56:28.720Z,3.50
2019-02-05T06:57:28.643Z,3.59
2019-02-05T06:58:28.543Z,3.56
2019-02-05T06:59:28.464Z,3.59
2019-02-05T07:00:28.368Z,3.53
2019-02-05T07:01:28.281Z,3.54
2019-02-05T07:02:28.225Z,3.62
2019-02-05T07:03:28.104Z,3.60
2019-02-05T07:04:28.020Z,3.59
2019-02-05T07:05:27.936Z,3.64
2019-02-05T07:06:27.844Z,3.56
2019-02-05T07:07:27.776Z,3.56
2019-02-05T07:08:27.669Z,3.52
2019-02-05T07:09:27.582Z,3.72
2019-02-05T07:10:27.504Z,3.71
2019-02-05T07:11:27.409Z,3.64
2019-02-05T07:12:27.337Z,3.71
2019-02-05T07:13:27.241Z,3.71
2019-02-05T07:14:27.148Z,3.70
2019-02-05T07:15:27.069Z,3.70
2019-02-05T07:16:26.974Z,3.68
2019-02-05T07:17:26.904Z,3.68
2019-02-05T07:18:26.801Z,3.68
2019-02-05T07:19:26.719Z,3.77
2019-02-05T07:20:26.629Z,3.71
2019-02-05T07:21:26.544Z,3.60
2019-02-05T07:22:26.468Z,3.72
2019-02-05T07:23:26.372Z,3.74
2019-02-05T07:24:26.277Z,3.75
2019-02-05T07:25:26.190Z,3.71
2019-02-05T07:26:26.106Z,3.75
2019-02-05T07:27:26.038Z,3.74
2019-02-05T07:28:25.930Z,3.75
2019-02-05T07:29:25.850Z,3.74
2019-02-05T07:30:25.760Z,3.70
2019-02-05T07:31:25.675Z,3.71
2019-02-05T07:32:25.596Z,3.75
2019-02-05T07:33:25.496Z,3.71
2019-02-05T07:34:25.569Z,3.78
2019-02-05T07:35:25.329Z,3.80
2019-02-05T07:36:25.231Z,3.84
2019-02-05T07:37:25.169Z,3.78
2019-02-05T07:38:25.065Z,3.80
2019-02-05T07:39:27.550Z,3.78
2019-02-05T07:40:24.903Z,3.80
2019-02-05T07:41:24.802Z,3.78
2019-02-05T07:42:24.731Z,3.77
2019-02-05T07:43:24.633Z,3.78
2019-02-05T07:44:24.541Z,3.82
2019-02-05T07:45:24.454Z,3.77
2019-02-05T07:46:24.372Z,3.82
2019-02-05T07:47:24.296Z,3.86
2019-02-05T07:48:24.194Z,3.82
2019-02-05T07:49:24.115Z,3.81
2019-02-05T07:50:24.023Z,3.90
2019-02-05T07:51:23.939Z,3.89
2019-02-05T07:52:23.860Z,3.78
2019-02-05T07:53:23.768Z,3.84
2019-02-05T07:54:23.677Z,3.84
2019-02-05T07:55:23.588Z,3.89
2019-02-05T07:56:23.507Z,3.92
2019-02-05T07:57:23.439Z,3.82
2019-02-05T07:58:23.327Z,3.90
2019-02-05T07:59:23.245Z,3.93
2019-02-05T08:00:23.158Z,3.92
2019-02-05T08:01:23.076Z,3.93
2019-02-05T08:02:22.997Z,4.02
2019-02-05T08:03:22.903Z,3.99
2019-02-05T08:04:22.807Z,4.00
2019-02-05T08:05:22.720Z,4.02
2019-02-05T08:06:22.642Z,4.04
2019-02-05T08:07:22.546Z,4.04
2019-02-05T08:08:22.595Z,4.06
2019-02-05T08:09:22.381Z,4.04
2019-02-05T08:10:22.291Z,4.06
2019-02-05T08:11:22.203Z,4.00
2019-02-05T08:12:22.116Z,4.10
2019-02-05T08:13:22.047Z,4.17
2019-02-05T08:14:21.942Z,4.14
2019-02-05T08:15:21.864Z,4.14
2019-02-05T08:16:21.770Z,4.11
2019-02-05T08:17:21.689Z,4.11
2019-02-05T08:18:21.615Z,4.18
2019-02-05T08:19:21.513Z,4.13
2019-02-05T08:20:21.431Z,4.16
2019-02-05T08:21:21.338Z,4.13
2019-02-05T08:22:21.250Z,4.20
2019-02-05T08:23:21.184Z,4.29
2019-02-05T08:24:21.080Z,4.29
2019-02-05T08:25:20.995Z,4.28
2019-02-05T08:26:20.913Z,4.31
2019-02-05T08:27:20.831Z,4.26
2019-02-05T08:28:20.757Z,4.25
2019-02-05T08:29:21.906Z,4.29
2019-02-05T08:30:20.667Z,4.32
2019-02-05T08:31:20.481Z,4.29
2019-02-05T08:32:20.389Z,4.29
2019-02-05T08:33:20.322Z,4.28
2019-02-05T08:34:20.219Z,4.31
2019-02-05T08:35:20.137Z,4.31
2019-02-05T08:36:20.047Z,4.36
2019-02-05T08:37:19.969Z,4.35
2019-02-05T08:38:19.884Z,4.34
2019-02-05T08:39:19.790Z,4.35
2019-02-05T08:40:19.699Z,4.34
2019-02-05T08:41:19.618Z,4.47
2019-02-05T08:42:19.529Z,4.46
2019-02-05T08:43:19.461Z,4.44
2019-02-05T08:44:19.354Z,4.46
2019-02-05T08:45:19.275Z,4.47
2019-02-05T08:46:19.184Z,4.50
2019-02-05T08:47:19.103Z,4.46
2019-02-05T08:48:19.025Z,4.42
2019-02-05T08:49:18.933Z,4.35
2019-02-05T08:50:18.839Z,4.50
2019-02-05T08:51:18.758Z,4.50
2019-02-05T08:52:18.665Z,4.47
2019-02-05T08:53:18.599Z,4.50
2019-02-05T08:54:18.496Z,4.50
2019-02-05T08:55:18.409Z,4.47
2019-02-05T08:56:18.332Z,4.39
2019-02-05T08:57:18.237Z,4.53
2019-02-05T08:58:18.170Z,4.61
2019-02-05T08:59:18.074Z,4.54
2019-02-05T09:00:17.978Z,4.54
2019-02-05T09:01:17.899Z,4.57
2019-02-05T09:02:17.807Z,4.56
2019-02-05T09:03:17.739Z,4.61
2019-02-05T09:04:17.635Z,4.54
2019-02-05T09:05:17.555Z,4.65
2019-02-05T09:06:17.465Z,4.59
2019-02-05T09:07:17.386Z,4.64
2019-02-05T09:08:17.306Z,4.69
2019-02-05T09:09:17.210Z,4.68
2019-02-05T09:10:17.120Z,4.77
2019-02-05T09:11:17.035Z,4.75
2019-02-05T09:12:18.036Z,4.87
2019-02-05T09:13:16.879Z,4.88
2019-02-05T09:14:16.776Z,4.87
2019-02-05T09:15:16.697Z,4.84
2019-02-05T09:16:16.609Z,4.83
2019-02-05T09:17:16.519Z,4.83
2019-02-05T09:18:16.455Z,4.88
2019-02-05T09:19:16.348Z,4.88
2019-02-05T09:20:16.264Z,4.87
2019-02-05T09:21:16.185Z,4.80
2019-02-05T09:22:16.091Z,4.86
2019-02-05T09:23:16.023Z,4.88
2019-02-05T09:24:15.919Z,4.86
2019-02-05T09:25:15.834Z,4.86
2019-02-05T09:26:15.757Z,4.83
2019-02-05T09:27:15.671Z,4.91
2019-02-05T09:28:15.590Z,4.91
2019-02-05T09:29:15.499Z,4.79
2019-02-05T09:30:15.405Z,4.93
2019-02-05T09:31:15.321Z,4.96
2019-02-05T09:32:15.245Z,4.91
2019-02-05T09:33:15.258Z,5.01
2019-02-05T09:34:15.067Z,4.99
2019-02-05T09:35:14.983Z,4.96
2019-02-05T09:36:14.892Z,4.99
2019-02-05T09:37:14.808Z,4.99
2019-02-05T09:38:14.728Z,4.93
2019-02-05T09:39:14.656Z,4.94
2019-02-05T09:40:14.550Z,4.93
2019-02-05T09:41:14.470Z,4.99
2019-02-05T09:42:14.380Z,5.08
2019-02-05T09:43:14.298Z,5.04
2019-02-05T09:44:14.220Z,5.12
2019-02-05T09:45:14.129Z,5.12
2019-02-05T09:46:14.043Z,5.12
2019-02-05T09:47:13.959Z,5.12
2019-02-05T09:48:13.867Z,5.12
2019-02-05T09:49:13.803Z,5.17
2019-02-05T09:50:13.697Z,5.27
2019-02-05T09:51:13.620Z,5.27
2019-02-05T09:52:13.524Z,5.20
2019-02-05T09:53:13.447Z,5.27
2019-02-05T09:54:13.372Z,5.20
2019-02-05T09:55:13.269Z,5.23
2019-02-05T09:56:13.200Z,5.22
2019-02-05T09:57:13.100Z,5.12
2019-02-05T09:58:13.013Z,5.22
2019-02-05T09:59:12.948Z,5.26
2019-02-05T10:00:12.845Z,5.24
2019-02-05T10:01:12.758Z,5.26
2019-02-05T10:02:12.682Z,5.23
2019-02-05T10:03:12.589Z,5.35
2019-02-05T10:04:12.515Z,5.32
2019-02-05T10:05:12.424Z,5.38
2019-02-05T10:06:12.337Z,5.35
2019-02-05T10:07:12.249Z,5.32
2019-02-05T10:08:12.164Z,5.35
2019-02-05T10:09:12.092Z,5.38
2019-02-05T10:10:12.014Z,5.44
2019-02-05T10:11:11.906Z,5.48
2019-02-05T10:12:11.830Z,5.41
2019-02-05T10:13:11.738Z,5.47
2019-02-05T10:14:11.672Z,5.56
2019-02-05T10:15:11.568Z,5.63
2019-02-05T10:16:11.490Z,5.49
2019-02-05T10:17:11.397Z,5.52
2019-02-05T10:18:11.318Z,5.48
2019-02-05T10:19:11.364Z,5.49
2019-02-05T10:20:11.170Z,5.58
2019-02-05T10:21:11.060Z,5.58
2019-02-05T10:22:10.978Z,5.58
2019-02-05T10:23:10.889Z,5.60
2019-02-05T10:24:10.829Z,5.51
2019-02-05T10:25:10.719Z,5.56
2019-02-05T10:26:10.639Z,5.48
2019-02-05T10:27:10.546Z,5.55
2019-02-05T10:28:10.480Z,5.56
2019-02-05T10:29:10.389Z,5.49
2019-02-05T10:30:10.300Z,5.59
2019-02-05T10:31:10.205Z,5.65
2019-02-05T10:32:10.123Z,5.60
2019-02-05T10:33:10.042Z,5.62
2019-02-05T10:34:09.967Z,5.62
2019-02-05T10:35:09.869Z,5.65
2019-02-05T10:36:09.787Z,5.66
2019-02-05T10:37:09.698Z,5.69
2019-02-05T10:38:09.618Z,5.66
2019-02-05T10:39:09.539Z,5.67
2019-02-05T10:40:09.446Z,5.66
2019-02-05T10:41:09.357Z,5.77
2019-02-05T10:42:09.273Z,5.78
2019-02-05T10:43:09.193Z,5.78
2019-02-05T10:44:09.128Z,5.78
2019-02-05T10:45:09.100Z,5.78
2019-02-05T10:46:08.939Z,5.75
2019-02-05T10:47:08.848Z,5.83
2019-02-05T10:48:08.770Z,5.78
2019-02-05T10:49:08.694Z,5.77
2019-02-05T10:50:08.599Z,5.87
2019-02-05T10:51:08.507Z,5.87
2019-02-05T10:52:08.430Z,5.80
2019-02-05T10:53:08.346Z,5.87
2019-02-05T10:54:08.271Z,5.87
2019-02-05T10:55:08.185Z,5.96
2019-02-05T10:56:08.083Z,5.96
2019-02-05T10:57:08.107Z,5.93
2019-02-05T10:58:07.914Z,5.87
2019-02-05T10:59:07.832Z,5.93
2019-02-05T11:00:09.220Z,5.85
2019-02-05T11:01:07.661Z,5.84
2019-02-05T11:02:07.595Z,5.87
2019-02-05T11:03:07.501Z,5.84
2019-02-05T11:04:07.405Z,5.87
2019-02-05T11:05:07.345Z,5.84
2019-02-05T11:06:07.237Z,5.84
2019-02-05T11:07:07.150Z,5.87
2019-02-05T11:08:07.073Z,5.85
2019-02-05T11:09:06.986Z,5.93
2019-02-05T11:10:06.911Z,5.90
2019-02-05T11:11:06.818Z,5.88
2019-02-05T11:12:06.727Z,5.93
2019-02-05T11:13:06.652Z,5.75
2019-02-05T11:14:06.567Z,5.87
2019-02-05T11:15:06.492Z,5.87
2019-02-05T11:16:06.388Z,5.87
2019-02-05T11:17:06.302Z,5.92
2019-02-05T11:18:06.225Z,5.95
2019-02-05T11:19:06.133Z,5.87
2019-02-05T11:20:06.071Z,5.90
2019-02-05T11:21:05.971Z,5.84
2019-02-05T11:22:05.878Z,5.84
2019-02-05T11:23:05.818Z,5.87
2019-02-05T11:24:05.708Z,5.99
2019-02-05T11:25:05.651Z,5.98
2019-02-05T11:26:05.542Z,6.05
2019-02-05T11:27:05.455Z,6.08
2019-02-05T11:28:05.375Z,6.02
2019-02-05T11:29:05.284Z,6.05
2019-02-05T11:30:05.214Z,6.06
2019-02-05T11:31:05.129Z,6.06
2019-02-05T11:32:05.030Z,5.99
2019-02-05T11:33:04.958Z,6.05
2019-02-05T11:34:04.935Z,6.08
2019-02-05T11:35:04.795Z,6.10
2019-02-05T11:36:04.699Z,6.14
2019-02-05T11:37:04.613Z,6.25
2019-02-05T11:38:04.523Z,6.20
2019-02-05T11:39:04.445Z,6.16
2019-02-05T11:40:04.369Z,6.16
2019-02-05T11:41:04.289Z,6.13
2019-02-05T11:42:04.184Z,6.17
2019-02-05T11:43:04.097Z,6.20
2019-02-05T11:44:04.021Z,6.17
2019-02-05T11:45:03.954Z,6.33
2019-02-05T11:46:03.845Z,6.30
2019-02-05T11:47:04.079Z,6.30
2019-02-05T11:48:03.675Z,6.25
2019-02-05T11:49:03.593Z,6.30
2019-02-05T11:50:03.542Z,6.28
2019-02-05T11:51:03.426Z,6.27
2019-02-05T11:52:03.340Z,6.27
2019-02-05T11:53:03.261Z,6.35
2019-02-05T11:54:03.170Z,6.40
2019-02-05T11:55:03.102Z,6.33
2019-02-05T11:56:03.004Z,6.36
2019-02-05T11:57:02.921Z,6.35
2019-02-05T11:58:02.830Z,6.43
2019-02-05T11:59:02.755Z,6.51
2019-02-05T12:00:02.676Z,6.51
2019-02-05T12:01:02.591Z,6.42
2019-02-05T12:02:02.527Z,6.42
2019-02-05T12:03:02.406Z,6.57
2019-02-05T12:04:02.342Z,6.48
2019-02-05T12:05:02.261Z,6.53
2019-02-05T12:06:02.164Z,6.55
2019-02-05T12:07:02.086Z,6.54
2019-02-05T12:08:01.986Z,6.50
2019-02-05T12:09:01.921Z,6.51
2019-02-05T12:10:01.840Z,6.45
2019-02-05T12:11:01.742Z,6.43
2019-02-05T12:12:01.652Z,6.50
2019-02-05T12:13:01.569Z,6.55
2019-02-05T12:14:01.484Z,6.54
2019-02-05T12:15:01.413Z,6.53
2019-02-05T12:16:01.321Z,6.48
2019-02-05T12:17:01.237Z,6.55
2019-02-05T12:18:01.141Z,6.55
2019-02-05T12:19:01.061Z,6.54
2019-02-05T12:20:00.998Z,6.54
2019-02-05T12:21:00.890Z,6.55
2019-02-05T12:22:00.812Z,6.53
2019-02-05T12:23:00.724Z,6.55
2019-02-05T12:24:00.638Z,6.53
2019-02-05T12:25:00.545Z,6.50
2019-02-05T12:26:00.485Z,6.48
2019-02-05T12:27:00.402Z,6.40
2019-02-05T12:28:00.303Z,6.50
2019-02-05T12:29:00.217Z,6.45
2019-02-05T12:30:00.335Z,6.42
2019-02-05T12:31:00.055Z,6.45
2019-02-05T12:31:59.961Z,6.35
2019-02-05T12:33:01.819Z,6.46
2019-02-05T12:33:59.794Z,6.54
2019-02-05T12:34:59.716Z,6.39
2019-02-05T12:35:59.641Z,6.38
2019-02-05T12:36:59.538Z,6.30
2019-02-05T12:37:59.462Z,6.39
2019-02-05T12:38:59.367Z,6.36
2019-02-05T12:39:59.282Z,6.38
2019-02-05T12:40:59.218Z,6.46
2019-02-05T12:41:59.112Z,6.53
2019-02-05T12:42:59.027Z,6.39
2019-02-05T12:43:59.745Z,6.38
2019-02-05T12:44:58.864Z,6.36
2019-02-05T12:45:58.788Z,6.36
2019-02-05T12:46:58.694Z,6.40
2019-02-05T12:47:58.605Z,6.48
2019-02-05T12:48:58.521Z,6.54
2019-02-05T12:49:58.455Z,6.45
2019-02-05T12:50:58.379Z,6.50
2019-02-05T12:51:58.335Z,6.38
2019-02-05T12:52:58.192Z,6.38
2019-02-05T12:53:58.098Z,6.39
2019-02-05T12:55:12.442Z,6.42
2019-02-05T12:55:57.939Z,6.33
2019-02-05T12:56:57.861Z,6.28
2019-02-05T12:57:57.763Z,6.27
2019-02-05T12:58:57.679Z,6.32
2019-02-05T12:59:57.596Z,6.33
2019-02-05T13:00:59.561Z,6.40
2019-02-05T13:01:57.425Z,6.38
2019-02-05T13:02:57.333Z,6.35
2019-02-05T13:03:57.255Z,6.54
2019-02-05T13:04:57.169Z,6.46
2019-02-05T13:05:57.094Z,6.51
2019-02-05T13:06:57.013Z,6.51
2019-02-05T13:07:56.913Z,6.48
2019-02-05T13:08:56.826Z,6.53
2019-02-05T13:09:56.744Z,6.55
2019-02-05T13:10:56.669Z,6.55
2019-02-05T13:11:56.571Z,6.57
2019-02-05T13:12:56.491Z,6.65
2019-02-05T13:13:56.404Z,6.69
2019-02-05T13:14:56.324Z,6.81
2019-02-05T13:15:56.250Z,6.65
2019-02-05T13:16:56.250Z,6.63